createdAt,value
2019-02-27T00:03:06.981Z,13.18
2019-02-27T00:09:01.985Z,11.25
2019-02-27T00:14:56.987Z,10.6
2019-02-27T00:20:51.993Z,11.97
2019-02-27T00:26:47.022Z,11.18
2019-02-27T00:32:41.988Z,11.5
2019-02-27T00:38:36.981Z,15.33
2019-02-27T00:44:34.696Z,15.62
2019-02-27T00:50:27.011Z,11.36
2019-02-27T00:56:22.026Z,15.5
2019-02-27T01:02:19.893Z,16.47
2019-02-27T01:08:12.060Z,14.2
2019-02-27T01:14:07.007Z,19.51
2019-02-27T01:20:06.126Z,13.77
2019-02-27T01:25:57.119Z,19.95
2019-02-27T01:31:52.023Z,13.48
2019-02-27T01:37:47.025Z,12.71
2019-02-27T01:43:42.056Z,14.92
2019-02-27T01:49:37.041Z,13.77
2019-02-27T01:55:32.054Z,16.72
2019-02-27T02:01:29.735Z,14.93
2019-02-27T02:07:22.088Z,14.69
2019-02-27T02:13:17.050Z,16.23
2019-02-27T02:19:12.059Z,19.66
2019-02-27T02:25:07.043Z,22.81
2019-02-27T02:31:05.310Z,13.78
2019-02-27T02:37:01.189Z,20.35
2019-02-27T02:42:52.061Z,20.03
2019-02-27T02:48:47.109Z,20.88
2019-02-27T02:54:42.069Z,17.41
2019-02-27T03:00:38.916Z,15.1
2019-02-27T03:06:34.957Z,15.05
2019-02-27T03:12:30.919Z,16.29
2019-02-27T03:18:22.156Z,15
2019-02-27T03:24:17.086Z,19.25
2019-02-27T03:30:12.095Z,17.16
2019-02-27T03:36:07.100Z,19.09
2019-02-27T03:42:02.111Z,19.34
2019-02-27T03:47:57.174Z,17.26
2019-02-27T03:53:52.086Z,20.37
2019-02-27T03:59:47.095Z,19.89
2019-02-27T04:05:45.209Z,20.11
2019-02-27T04:11:41.340Z,14.4
2019-02-27T04:17:32.090Z,14.11
2019-02-27T04:23:27.181Z,19.88
2019-02-27T04:29:22.139Z,15.22
2019-02-27T04:35:17.141Z,14.2
2019-02-27T04:41:12.108Z,18.06
2019-02-27T04:47:07.157Z,13.74
2019-02-27T04:53:02.142Z,15.46
2019-02-27T04:58:57.177Z,17.63
2019-02-27T05:04:52.180Z,15.39
2019-02-27T05:10:47.129Z,14.3
2019-02-27T05:16:42.172Z,13.32
2019-02-27T05:22:37.177Z,12.44
2019-02-27T05:28:34.909Z,16.74
2019-02-27T05:34:27.150Z,14.75
2019-02-27T05:40:23.065Z,14.93
2019-02-27T05:46:17.148Z,20.38
2019-02-27T05:52:14.278Z,15.93
2019-02-27T05:58:07.160Z,15.1
2019-02-27T06:04:02.157Z,20.19
2019-02-27T06:09:57.216Z,17.69
2019-02-27T06:15:52.175Z,18.66
2019-02-27T06:21:47.192Z,16.1
2019-02-27T06:27:42.192Z,19.23
2019-02-27T06:33:37.188Z,14.4
2019-02-27T06:39:34.326Z,17.35
2019-02-27T06:45:27.196Z,16.59
2019-02-27T06:51:22.216Z,17.18
2019-02-27T06:57:17.238Z,18.15
2019-02-27T07:03:12.216Z,22.2
2019-02-27T07:09:11.150Z,27.72
2019-02-27T07:15:02.215Z,23.2
2019-02-27T07:20:58.220Z,24.06
2019-02-27T07:26:52.205Z,36.64
2019-02-27T07:32:47.224Z,67.84
2019-02-27T07:38:42.290Z,25.2
2019-02-27T07:44:37.254Z,31.1
2019-02-27T07:50:32.638Z,24.53
2019-02-27T07:56:27.224Z,21.74
2019-02-27T08:02:22.268Z,19.43
2019-02-27T08:08:17.290Z,19.41
2019-02-27T08:14:12.954Z,22.94
2019-02-27T08:20:07.276Z,20.32
2019-02-27T08:26:04.464Z,22.68
2019-02-27T08:32:00.660Z,24.98
2019-02-27T08:37:59.660Z,27.33
2019-02-27T08:43:47.267Z,32.34
2019-02-27T08:49:42.287Z,33.16
2019-02-27T08:55:39.192Z,39.73
2019-02-27T09:01:32.259Z,38.37
2019-02-27T09:07:27.361Z,39.07
2019-02-27T09:13:22.288Z,36.58
2019-02-27T09:19:17.282Z,35.52
2019-02-27T09:25:12.284Z,31.71
2019-02-27T09:31:07.316Z,33.43
2019-02-27T09:37:02.295Z,29.85
2019-02-27T09:42:57.288Z,33.81
2019-02-27T09:48:52.339Z,29.03
2019-02-27T09:54:47.568Z,30.42
2019-02-27T10:00:42.325Z,31.63
2019-02-27T10:06:37.327Z,29
2019-02-27T10:12:32.328Z,26.86
2019-02-27T10:18:27.355Z,27.33
2019-02-27T10:24:22.331Z,26.16
2019-02-27T10:30:17.308Z,30.55
2019-02-27T10:36:12.316Z,29.82
2019-02-27T10:42:07.354Z,34.09
2019-02-27T10:48:02.382Z,31.47
2019-02-27T10:54:01.857Z,31.48
2019-02-27T10:59:52.347Z,30.05
2019-02-27T11:05:52.029Z,28.93
2019-02-27T11:11:42.389Z,26.41
2019-02-27T11:17:37.346Z,27.49
2019-02-27T11:23:32.371Z,29.24
2019-02-27T11:29:27.381Z,28.98
2019-02-27T11:35:24.967Z,24.95
2019-02-27T11:41:17.385Z,28.46
2019-02-27T11:47:12.389Z,30.35
2019-02-27T11:53:07.404Z,24.92
2019-02-27T11:59:02.409Z,21.78
2019-02-27T12:04:57.438Z,29.1
2019-02-27T12:10:52.451Z,25.15
2019-02-27T12:16:48.550Z,21.02
2019-02-27T12:22:42.403Z,24.62
2019-02-27T12:28:37.416Z,19.99
2019-02-27T12:34:33.981Z,24.96
2019-02-27T12:40:27.445Z,20.32
2019-02-27T12:46:22.474Z,19.27
2019-02-27T12:52:17.423Z,20.58
2019-02-27T12:58:13.448Z,22.77
2019-02-27T13:04:07.453Z,25.53
2019-02-27T13:10:02.426Z,24.09
2019-02-27T13:15:57.513Z,20.91
2019-02-27T13:21:54.997Z,24.88
2019-02-27T13:27:47.465Z,29.05
2019-02-27T13:33:42.438Z,25.83
2019-02-27T13:39:37.450Z,19.26
2019-02-27T13:45:32.452Z,21.66
2019-02-27T13:51:27.486Z,21.87
2019-02-27T13:57:24.821Z,16.53
2019-02-27T14:03:17.486Z,17.73
2019-02-27T14:09:12.492Z,15.77
2019-02-27T14:15:07.488Z,12.83
2019-02-27T14:21:02.482Z,16.03
2019-02-27T14:26:57.485Z,13.08
2019-02-27T14:32:52.500Z,14.54
2019-02-27T14:38:47.524Z,16.7
2019-02-27T14:44:42.514Z,14.11
2019-02-27T14:50:37.527Z,12.57
2019-02-27T14:56:32.504Z,11.12
2019-02-27T15:02:27.523Z,15.47
2019-02-27T15:08:25.125Z,11.3
2019-02-27T15:14:17.502Z,13.37
2019-02-27T15:20:12.581Z,13.56
2019-02-27T15:26:07.534Z,14.98
2019-02-27T15:32:02.540Z,12.42
2019-02-27T15:37:57.537Z,14.54
2019-02-27T15:43:57.564Z,11.8
2019-02-27T15:49:48.677Z,12.86
2019-02-27T15:55:42.560Z,11.9
2019-02-27T16:01:37.550Z,14.35
2019-02-27T16:07:32.575Z,13.56
2019-02-27T16:13:27.595Z,11.78
2019-02-27T16:19:22.641Z,13.01
2019-02-27T16:25:19.744Z,10.95
2019-02-27T16:31:12.587Z,13.23
2019-02-27T16:37:07.577Z,11.85
2019-02-27T16:43:02.595Z,15.4
2019-02-27T16:48:57.580Z,10.13
2019-02-27T16:54:52.599Z,12.75
2019-02-27T17:00:47.669Z,10.78
2019-02-27T17:06:42.589Z,14.71
2019-02-27T17:12:38.166Z,9.28
2019-02-27T17:18:32.639Z,8.76
2019-02-27T17:24:27.601Z,14.08
2019-02-27T17:30:24.300Z,11.78
2019-02-27T17:36:17.595Z,10.62
2019-02-27T17:42:12.609Z,10.62
2019-02-27T17:48:09.239Z,9.04
2019-02-27T17:54:02.626Z,8.85
2019-02-27T17:59:57.632Z,11.26
2019-02-27T18:05:52.682Z,8.22
2019-02-27T18:11:49.391Z,11.52
2019-02-27T18:17:42.630Z,6.73
2019-02-27T18:23:37.643Z,5.68
2019-02-27T18:29:32.635Z,10.93
2019-02-27T18:35:29.496Z,8.57
2019-02-27T18:41:22.632Z,15.07
2019-02-27T18:47:17.654Z,17.39
2019-02-27T18:53:13.308Z,10.7
2019-02-27T18:59:07.695Z,15.84
2019-02-27T19:05:02.709Z,14.29
2019-02-27T19:10:57.703Z,13.69
2019-02-27T19:16:54.873Z,17.4
2019-02-27T19:22:47.729Z,20.34
2019-02-27T19:28:42.693Z,16.5
2019-02-27T19:34:37.760Z,15.41
2019-02-27T19:40:32.681Z,17.65
2019-02-27T19:46:27.755Z,21.85
2019-02-27T19:52:22.669Z,15.63
2019-02-27T19:58:18.334Z,17.45
2019-02-27T20:04:12.836Z,18.28
2019-02-27T20:10:07.711Z,16.05
2019-02-27T20:16:02.734Z,18.59
2019-02-27T20:21:58.597Z,15.8
2019-02-27T20:27:52.782Z,17.79
2019-02-27T20:33:47.779Z,16.88
2019-02-27T20:39:42.720Z,17.3
2019-02-27T20:45:40.005Z,16.37
2019-02-27T20:51:32.737Z,17.85
2019-02-27T20:57:27.726Z,18.53
2019-02-27T21:03:26.648Z,18.5
2019-02-27T21:09:17.743Z,15.49
2019-02-27T21:15:12.751Z,13.24
2019-02-27T21:21:07.739Z,12.99
2019-02-27T21:27:02.763Z,13.6
2019-02-27T21:32:57.795Z,14.57
2019-02-27T21:38:52.792Z,16.41
2019-02-27T21:44:47.784Z,13.27
2019-02-27T21:50:42.760Z,16.47
2019-02-27T21:56:37.779Z,14.59
2019-02-27T22:02:32.790Z,12.49
2019-02-27T22:08:27.775Z,13.93
2019-02-27T22:14:22.777Z,12.67
2019-02-27T22:20:17.797Z,19.29
2019-02-27T22:26:12.817Z,15.65
2019-02-27T22:32:07.792Z,14.72
2019-02-27T22:38:02.787Z,17.38
2019-02-27T22:43:57.818Z,13.92
2019-02-27T22:49:52.768Z,16.13
2019-02-27T22:55:47.787Z,15.35
2019-02-27T23:01:42.806Z,16.44
2019-02-27T23:07:37.808Z,18.48
2019-02-27T23:13:32.799Z,14.72
2019-02-27T23:19:27.839Z,17.53
2019-02-27T23:25:22.847Z,17.95
2019-02-27T23:31:22.151Z,21.85
2019-02-27T23:37:12.813Z,19.2
2019-02-27T23:43:07.853Z,23.75
2019-02-27T23:49:02.864Z,21.13
2019-02-27T23:54:57.829Z,18.9
